Time;durP1;ratioP1;P1;durP2;ratioP2;P2;SDS_P1;SDS_P2;PMS_P1;PMS_P2;Temp;Humidity;BMP_temperature;BMP_pressure;BME280_temperature;BME280_humidity;BME280_pressure;Samples;Min_cycle;Max_cycle;Signal;HPM_P1;HPM_P2
2022/11/16 00:01:05;;;;;;;12.43;3.47;;;;;;;;;;6201012;23;20071;-82
2022/11/16 00:03:32;;;;;;;6.57;3.05;;;;;;;;;;6202238;23;20084;-83
2022/11/16 00:06:03;;;;;;;12.20;3.60;;;;;;;;;;6203130;23;20005;-82
2022/11/16 00:08:31;;;;;;;7.35;2.78;;;;;;;;;;6200909;23;20091;-82
2022/11/16 00:11:03;;;;;;;5.57;2.88;;;;;;;;;;6203100;23;20311;-83
2022/11/16 00:13:31;;;;;;;3.58;2.67;;;;;;;;;;6203388;23;20367;-84
2022/11/16 00:15:57;;;;;;;7.13;3.13;;;;;;;;;;6202868;23;20088;-83
2022/11/16 00:18:23;;;;;;;7.97;2.92;;;;;;;;;;6201705;23;20019;-83
2022/11/16 00:20:50;;;;;;;5.88;2.95;;;;;;;;;;6203510;23;20018;-83
2022/11/16 00:23:16;;;;;;;4.43;2.72;;;;;;;;;;6201934;23;20000;-83
2022/11/16 00:25:42;;;;;;;5.15;3.05;;;;;;;;;;6202594;23;20034;-81
2022/11/16 00:28:09;;;;;;;6.85;3.38;;;;;;;;;;6203677;23;20005;-83
2022/11/16 00:30:36;;;;;;;8.48;3.08;;;;;;;;;;6203290;23;20004;-83
2022/11/16 00:33:02;;;;;;;6.95;3.10;;;;;;;;;;6200936;23;20079;-83
2022/11/16 00:35:28;;;;;;;8.23;3.22;;;;;;;;;;6203378;23;20444;-78
2022/11/16 00:37:55;;;;;;;5.18;3.17;;;;;;;;;;6202216;23;20048;-84
2022/11/16 00:40:21;;;;;;;5.60;2.38;;;;;;;;;;6203257;23;20005;-83
2022/11/16 00:42:47;;;;;;;6.80;3.15;;;;;;;;;;6200242;23;20106;-84
2022/11/16 00:45:13;;;;;;;4.93;2.80;;;;;;;;;;6203684;23;20012;-82
2022/11/16 00:47:39;;;;;;;5.50;2.35;;;;;;;;;;6202720;23;20004;-84
2022/11/16 00:50:06;;;;;;;5.68;2.65;;;;;;;;;;6202312;23;20000;-82
2022/11/16 00:52:32;;;;;;;3.33;2.50;;;;;;;;;;6201255;23;20013;-83
2022/11/16 00:54:58;;;;;;;7.60;2.97;;;;;;;;;;6202033;23;20566;-83
2022/11/16 00:57:24;;;;;;;8.23;3.00;;;;;;;;;;6202993;23;20008;-83
2022/11/16 00:59:50;;;;;;;7.80;3.20;;;;;;;;;;6202173;23;20024;-84
2022/11/16 01:02:16;;;;;;;8.55;2.63;;;;;;;;;;6200390;23;20012;-82
2022/11/16 01:04:43;;;;;;;7.80;2.70;;;;;;;;;;6200797;23;20012;-81
2022/11/16 01:07:09;;;;;;;4.15;2.08;;;;;;;;;;6202776;23;20015;-83
2022/11/16 01:09:35;;;;;;;7.60;2.40;;;;;;;;;;6202594;23;20004;-84
2022/11/16 01:12:11;;;;;;;7.60;2.72;;;;;;;;;;6202563;23;20008;-83
2022/11/16 01:14:44;;;;;;;3.95;2.13;;;;;;;;;;6201307;23;20026;-83
2022/11/16 01:17:10;;;;;;;4.85;2.20;;;;;;;;;;6203349;23;20533;-83
2022/11/16 01:19:37;;;;;;;3.97;2.42;;;;;;;;;;6202911;23;20107;-82
2022/11/16 01:22:04;;;;;;;5.55;2.40;;;;;;;;;;6202660;23;20020;-84
2022/11/16 01:24:30;;;;;;;5.90;2.55;;;;;;;;;;6203130;23;20009;-84
2022/11/16 01:26:57;;;;;;;6.03;2.50;;;;;;;;;;6202198;23;19997;-84
2022/11/16 01:29:27;;;;;;;5.47;2.30;;;;;;;;;;6201006;23;20370;-84
2022/11/16 01:31:53;;;;;;;4.35;2.20;;;;;;;;;;6201752;23;20007;-86
2022/11/16 01:34:19;;;;;;;4.82;2.70;;;;;;;;;;6204916;23;20007;-84
2022/11/16 01:36:46;;;;;;;4.35;2.40;;;;;;;;;;6201913;23;20026;-80
2022/11/16 01:39:12;;;;;;;9.23;2.88;;;;;;;;;;6203512;23;20023;-84
2022/11/16 01:41:39;;;;;;;7.25;2.80;;;;;;;;;;6203212;23;20024;-84
2022/11/16 01:44:25;;;;;;;4.28;2.60;;;;;;;;;;6203573;23;20084;-82
2022/11/16 01:46:51;;;;;;;3.65;2.15;;;;;;;;;;6203459;23;20407;-85
2022/11/16 01:49:20;;;;;;;4.72;2.22;;;;;;;;;;6201952;23;19996;-84
2022/11/16 01:51:49;;;;;;;7.25;2.58;;;;;;;;;;6202519;23;20016;-83
2022/11/16 01:54:15;;;;;;;4.72;2.22;;;;;;;;;;6203984;23;20011;-83
2022/11/16 01:56:43;;;;;;;5.15;3.08;;;;;;;;;;6203466;23;20475;-82
2022/11/16 01:59:10;;;;;;;8.05;2.30;;;;;;;;;;6203521;23;20685;-82
2022/11/16 02:01:36;;;;;;;3.40;2.25;;;;;;;;;;6201829;23;20011;-79
2022/11/16 02:04:02;;;;;;;3.78;2.63;;;;;;;;;;6203107;23;20426;-77
2022/11/16 02:06:28;;;;;;;5.63;2.17;;;;;;;;;;6203365;23;20051;-83
2022/11/16 02:12:11;;;;;;;6.18;2.88;;;;;;;;;;6202375;23;20015;-82
2022/11/16 02:14:43;;;;;;;6.15;2.42;;;;;;;;;;6203244;23;20016;-82
2022/11/16 02:17:26;;;;;;;8.00;2.28;;;;;;;;;;6203538;23;19996;-82
2022/11/16 02:20:01;;;;;;;5.32;2.33;;;;;;;;;;6175308;23;20020;-83
2022/11/16 02:22:46;;;;;;;8.63;3.00;;;;;;;;;;6203479;23;20011;-81
2022/11/16 02:25:17;;;;;;;6.88;3.15;;;;;;;;;;6201485;23;20472;-83
2022/11/16 02:27:49;;;;;;;4.55;2.30;;;;;;;;;;6198627;23;20100;-83
2022/11/16 02:30:15;;;;;;;;;;;;;;;;;;6201953;23;20006;-78
2022/11/16 02:33:01;;;;;;;3.97;2.60;;;;;;;;;;6200933;23;19947;-83
2022/11/16 02:35:36;;;;;;;6.97;2.50;;;;;;;;;;6201143;23;20055;-83
2022/11/16 02:38:06;;;;;;;8.23;3.03;;;;;;;;;;6142949;23;1381925;-80
2022/11/16 02:40:34;;;;;;;3.17;2.75;;;;;;;;;;6199899;23;20235;-81
2022/11/16 02:43:04;;;;;;;4.90;2.78;;;;;;;;;;6198481;23;20004;-82
2022/11/16 02:45:32;;;;;;;7.43;3.13;;;;;;;;;;6202220;23;20032;-84
2022/11/16 02:48:01;;;;;;;6.88;3.20;;;;;;;;;;6201461;23;20005;-82
2022/11/16 02:50:29;;;;;;;4.32;3.03;;;;;;;;;;6200723;23;20005;-83
2022/11/16 02:52:55;;;;;;;11.93;3.35;;;;;;;;;;6201447;23;20004;-82
2022/11/16 02:55:22;;;;;;;6.28;2.75;;;;;;;;;;6202014;23;20075;-80
2022/11/16 02:57:55;;;;;;;6.93;3.53;;;;;;;;;;6203948;23;20001;-82
2022/11/16 03:00:23;;;;;;;4.70;2.90;;;;;;;;;;6201776;23;20070;-84
2022/11/16 03:03:00;;;;;;;6.63;3.00;;;;;;;;;;6203547;23;20036;-84
2022/11/16 03:05:31;;;;;;;7.63;3.60;;;;;;;;;;6177746;23;20459;-84
2022/11/16 03:07:57;;;;;;;;;;;;;;;;;;6204242;23;20079;-85
2022/11/16 03:13:10;;;;;;;11.45;3.80;;;;;;;;;;6201980;23;20016;-82
2022/11/16 03:15:37;;;;;;;6.60;3.50;;;;;;;;;;6203923;23;20000;-82
2022/11/16 03:18:05;;;;;;;11.15;3.83;;;;;;;;;;6203677;23;20258;-82
2022/11/16 03:20:33;;;;;;;6.22;3.47;;;;;;;;;;6204024;23;20024;-83
2022/11/16 03:23:00;;;;;;;9.20;4.00;;;;;;;;;;6203741;23;20012;-83
2022/11/16 03:25:30;;;;;;;9.13;3.97;;;;;;;;;;6202951;23;20008;-82
2022/11/16 03:27:56;;;;;;;9.68;3.92;;;;;;;;;;6201546;23;20461;-83
2022/11/16 03:30:23;;;;;;;9.65;3.95;;;;;;;;;;6203881;23;20005;-82
2022/11/16 03:33:05;;;;;;;7.60;3.60;;;;;;;;;;6203413;23;20075;-83
2022/11/16 03:35:34;;;;;;;8.30;4.10;;;;;;;;;;6203886;23;20016;-83
2022/11/16 03:38:02;;;;;;;10.27;4.65;;;;;;;;;;6202454;23;20013;-83
2022/11/16 03:40:30;;;;;;;16.20;4.10;;;;;;;;;;6203673;23;20012;-84
2022/11/16 03:42:57;;;;;;;10.48;4.57;;;;;;;;;;6200065;23;20551;-83
2022/11/16 03:45:23;;;;;;;9.07;3.78;;;;;;;;;;6202902;23;20062;-84
2022/11/16 03:47:50;;;;;;;6.18;3.35;;;;;;;;;;6203388;23;20004;-84
2022/11/16 03:50:16;;;;;;;7.20;3.92;;;;;;;;;;6203228;23;20088;-83
2022/11/16 03:52:43;;;;;;;10.27;3.67;;;;;;;;;;6201662;23;20008;-82
2022/11/16 03:55:09;;;;;;;10.30;3.70;;;;;;;;;;6203340;23;20004;-81
2022/11/16 03:57:35;;;;;;;10.60;4.32;;;;;;;;;;6203689;23;20001;-84
2022/11/16 04:00:01;;;;;;;10.63;3.70;;;;;;;;;;6202544;23;20431;-82
2022/11/16 04:02:27;;;;;;;9.35;3.40;;;;;;;;;;6203154;23;19997;-85
2022/11/16 04:24:23;;;;;;;9.40;3.03;;;;;;;;;;6198890;23;20134;-84
2022/11/16 04:29:45;;;;;;;7.28;2.90;;;;;;;;;;6199986;23;20071;-84
2022/11/16 04:37:53;;;;;;;8.73;3.13;;;;;;;;;;6197773;23;20044;-83
2022/11/16 04:40:19;;;;;;;12.98;3.20;;;;;;;;;;6200344;23;20099;-83
2022/11/16 04:42:56;;;;;;;9.57;3.28;;;;;;;;;;6197728;23;20059;-79
2022/11/16 04:48:08;;;;;;;5.50;2.47;;;;;;;;;;6199500;23;20113;-84
2022/11/16 04:50:35;;;;;;;4.85;2.42;;;;;;;;;;6173867;23;20008;-84
2022/11/16 04:53:02;;;;;;;5.38;2.42;;;;;;;;;;6200220;23;20007;-83
2022/11/16 04:55:28;;;;;;;7.63;2.30;;;;;;;;;;6200061;23;20051;-85
2022/11/16 04:57:54;;;;;;;5.85;2.35;;;;;;;;;;6199538;23;20012;-83
2022/11/16 05:00:21;;;;;;;6.78;2.58;;;;;;;;;;6197758;23;20488;-83
2022/11/16 05:02:47;;;;;;;5.18;2.20;;;;;;;;;;6199805;23;20000;-80
2022/11/16 05:05:13;;;;;;;6.53;2.47;;;;;;;;;;6200280;23;20012;-82
2022/11/16 05:07:40;;;;;;;4.63;2.40;;;;;;;;;;6199916;23;20005;-84
2022/11/16 05:10:06;;;;;;;8.73;2.17;;;;;;;;;;6171603;23;20016;-75
2022/11/16 05:12:33;;;;;;;8.15;2.05;;;;;;;;;;6199188;23;20012;-84
2022/11/16 05:14:59;;;;;;;15.95;2.50;;;;;;;;;;6200034;23;20339;-84
2022/11/16 05:17:26;;;;;;;9.02;2.42;;;;;;;;;;6198993;23;20009;-83
2022/11/16 05:22:37;;;;;;;7.72;2.60;;;;;;;;;;6199446;23;20015;-82
2022/11/16 05:25:04;;;;;;;7.47;2.78;;;;;;;;;;6198829;23;20722;-83
2022/11/16 05:27:30;;;;;;;7.75;2.33;;;;;;;;;;6199508;23;20000;-83
2022/11/16 05:29:56;;;;;;;5.32;2.30;;;;;;;;;;6173124;23;20598;-83
2022/11/16 05:32:23;;;;;;;7.32;2.75;;;;;;;;;;6197459;23;20005;-84
2022/11/16 05:34:50;;;;;;;4.88;2.30;;;;;;;;;;6198160;23;20090;-83
2022/11/16 05:37:17;;;;;;;6.25;2.03;;;;;;;;;;6199004;23;20013;-83
2022/11/16 05:39:43;;;;;;;5.50;1.92;;;;;;;;;;6172172;23;20102;-82
2022/11/16 05:42:09;;;;;;;3.70;2.00;;;;;;;;;;6196132;23;20000;-83
2022/11/16 05:44:36;;;;;;;8.40;2.25;;;;;;;;;;6197105;23;20039;-80
2022/11/16 05:47:02;;;;;;;7.63;2.30;;;;;;;;;;6172439;23;20000;-82
2022/11/16 05:49:28;;;;;;;7.85;2.90;;;;;;;;;;6199396;23;20084;-84
2022/11/16 05:51:54;;;;;;;4.53;2.03;;;;;;;;;;6197294;23;20035;-83
2022/11/16 05:54:23;;;;;;;9.23;2.13;;;;;;;;;;6198228;23;20008;-82
2022/11/16 05:56:50;;;;;;;5.18;2.10;;;;;;;;;;6199298;23;20003;-83
2022/11/16 05:59:17;;;;;;;6.03;2.08;;;;;;;;;;6198753;23;20091;-83
2022/11/16 06:01:43;;;;;;;8.50;2.63;;;;;;;;;;6196452;23;20005;-77
2022/11/16 06:04:09;;;;;;;7.50;2.63;;;;;;;;;;6197076;23;20001;-80
2022/11/16 06:06:35;;;;;;;9.88;2.40;;;;;;;;;;6196450;23;20058;-84
2022/11/16 06:09:01;;;;;;;4.88;2.45;;;;;;;;;;6196836;23;20004;-80
2022/11/16 06:11:28;;;;;;;7.85;2.90;;;;;;;;;;6196898;23;20008;-83
2022/11/16 06:13:54;;;;;;;7.50;3.00;;;;;;;;;;6169817;23;20000;-83
2022/11/16 06:16:20;;;;;;;9.10;2.80;;;;;;;;;;6195985;23;20027;-83
2022/11/16 06:18:47;;;;;;;12.20;2.70;;;;;;;;;;6198981;23;20106;-83
2022/11/16 06:21:14;;;;;;;5.38;2.17;;;;;;;;;;6199275;23;20019;-82
2022/11/16 06:23:40;;;;;;;9.20;2.80;;;;;;;;;;6198793;23;20009;-84
2022/11/16 06:26:07;;;;;;;7.13;2.95;;;;;;;;;;6196085;23;20797;-84
2022/11/16 06:28:33;;;;;;;10.70;3.17;;;;;;;;;;6198945;23;20146;-77
2022/11/16 06:31:00;;;;;;;7.70;3.03;;;;;;;;;;6198530;23;20019;-82
2022/11/16 06:33:26;;;;;;;8.32;2.78;;;;;;;;;;6199167;23;20433;-80
2022/11/16 06:35:52;;;;;;;6.05;2.78;;;;;;;;;;6200196;23;20074;-82
2022/11/16 06:38:19;;;;;;;6.97;2.90;;;;;;;;;;6198312;23;20028;-81
2022/11/16 06:40:55;;;;;;;9.10;2.60;;;;;;;;;;6196549;23;20550;-79
2022/11/16 06:43:22;;;;;;;5.00;2.70;;;;;;;;;;6196665;23;20027;-80
2022/11/16 06:45:52;;;;;;;6.45;2.53;;;;;;;;;;6198493;23;20564;-81
2022/11/16 06:48:18;;;;;;;8.15;2.90;;;;;;;;;;6196262;23;20008;-79
2022/11/16 06:50:45;;;;;;;10.45;3.00;;;;;;;;;;6198498;23;20743;-79
2022/11/16 06:53:11;;;;;;;7.90;3.15;;;;;;;;;;6198889;23;20012;-80
2022/11/16 06:55:37;;;;;;;9.52;2.60;;;;;;;;;;6197088;23;20012;-81
2022/11/16 06:58:03;;;;;;;11.73;2.80;;;;;;;;;;6171847;23;20035;-76
2022/11/16 07:00:29;;;;;;;8.63;2.97;;;;;;;;;;6198614;23;20012;-79
2022/11/16 07:02:55;;;;;;;4.07;2.30;;;;;;;;;;6196828;23;20050;-77
2022/11/16 07:05:21;;;;;;;8.43;3.03;;;;;;;;;;6198699;23;20009;-82
2022/11/16 07:07:47;;;;;;;7.93;2.60;;;;;;;;;;6198415;23;20004;-80
2022/11/16 07:10:17;;;;;;;10.18;3.03;;;;;;;;;;6194715;23;20013;-81
2022/11/16 07:12:43;;;;;;;7.18;2.67;;;;;;;;;;6169888;23;20108;-81
2022/11/16 07:15:10;;;;;;;5.60;2.50;;;;;;;;;;6198533;23;20079;-80
2022/11/16 07:17:36;;;;;;;12.15;3.15;;;;;;;;;;6200044;23;20031;-80
2022/11/16 07:20:02;;;;;;;9.35;2.45;;;;;;;;;;6199171;23;20011;-79
2022/11/16 07:22:28;;;;;;;6.18;2.92;;;;;;;;;;6198421;23;20076;-78
2022/11/16 07:24:54;;;;;;;8.77;2.78;;;;;;;;;;6196650;23;20376;-78
2022/11/16 07:27:20;;;;;;;8.43;2.60;;;;;;;;;;6200832;23;20394;-79
2022/11/16 07:29:46;;;;;;;11.35;3.47;;;;;;;;;;6200875;23;20000;-78
2022/11/16 07:32:12;;;;;;;6.68;2.80;;;;;;;;;;6198655;23;20076;-83
2022/11/16 07:34:39;;;;;;;9.55;2.80;;;;;;;;;;6200061;23;20015;-75
2022/11/16 07:37:05;;;;;;;5.32;2.60;;;;;;;;;;6200978;23;20013;-82
2022/11/16 07:39:31;;;;;;;11.55;3.47;;;;;;;;;;6200759;23;20013;-82
2022/11/16 07:41:57;;;;;;;7.35;3.05;;;;;;;;;;6201929;23;20011;-82
2022/11/16 07:44:23;;;;;;;9.98;3.35;;;;;;;;;;6202334;23;20009;-82
2022/11/16 07:46:49;;;;;;;9.68;2.90;;;;;;;;;;6201242;23;20005;-84
2022/11/16 07:49:16;;;;;;;9.27;3.58;;;;;;;;;;6202192;23;20008;-83
2022/11/16 07:51:43;;;;;;;7.03;2.80;;;;;;;;;;6202188;23;20544;-82
2022/11/16 07:54:12;;;;;;;7.57;2.92;;;;;;;;;;6202380;23;20016;-82
2022/11/16 07:56:39;;;;;;;12.90;3.28;;;;;;;;;;6201226;23;20031;-82
2022/11/16 07:59:05;;;;;;;11.00;2.92;;;;;;;;;;6202410;23;20009;-82
2022/11/16 08:01:32;;;;;;;6.25;2.92;;;;;;;;;;6175954;23;20116;-82
2022/11/16 08:04:00;;;;;;;7.40;3.20;;;;;;;;;;6203202;23;20001;-82
2022/11/16 08:06:27;;;;;;;10.35;3.13;;;;;;;;;;6201360;23;20000;-82
2022/11/16 08:08:53;;;;;;;12.27;3.13;;;;;;;;;;6202261;23;20028;-82
2022/11/16 08:11:20;;;;;;;6.88;3.30;;;;;;;;;;6176419;23;20568;-80
2022/11/16 08:13:46;;;;;;;8.32;3.20;;;;;;;;;;6202879;23;20007;-83
2022/11/16 08:16:12;;;;;;;12.18;3.55;;;;;;;;;;6201194;23;20008;-83
2022/11/16 08:18:39;;;;;;;8.45;3.10;;;;;;;;;;6174802;23;20020;-84
2022/11/16 08:21:06;;;;;;;13.20;3.25;;;;;;;;;;6199173;23;20303;-83
2022/11/16 08:23:32;;;;;;;10.27;3.45;;;;;;;;;;6201923;23;20001;-82
2022/11/16 08:26:03;;;;;;;10.75;3.80;;;;;;;;;;6201492;23;20001;-82
2022/11/16 08:28:30;;;;;;;8.25;3.03;;;;;;;;;;6201959;23;20011;-82
2022/11/16 08:30:57;;;;;;;6.95;2.90;;;;;;;;;;6199992;23;20024;-82
2022/11/16 08:33:23;;;;;;;7.13;2.72;;;;;;;;;;6202041;23;20009;-83
2022/11/16 08:35:53;;;;;;;8.38;3.08;;;;;;;;;;6201365;23;20066;-82
2022/11/16 08:38:20;;;;;;;14.05;2.92;;;;;;;;;;6202688;23;20015;-82
2022/11/16 08:40:46;;;;;;;6.07;2.50;;;;;;;;;;6201307;23;20410;-80
2022/11/16 08:43:12;;;;;;;12.98;3.30;;;;;;;;;;6175977;23;20011;-82
2022/11/16 08:45:39;;;;;;;11.75;3.30;;;;;;;;;;6204561;23;20071;-81
2022/11/16 08:48:05;;;;;;;6.15;3.10;;;;;;;;;;6177214;23;20000;-83
2022/11/16 08:50:32;;;;;;;6.82;3.00;;;;;;;;;;6202177;23;20004;-78
2022/11/16 08:52:58;;;;;;;5.80;2.78;;;;;;;;;;6200711;23;20000;-78
2022/11/16 08:55:25;;;;;;;9.98;3.47;;;;;;;;;;6175320;23;20016;-82
2022/11/16 08:57:51;;;;;;;7.90;2.85;;;;;;;;;;6200521;23;20042;-81
2022/11/16 09:00:18;;;;;;;5.40;2.95;;;;;;;;;;6175823;23;20083;-81
2022/11/16 09:02:44;;;;;;;5.47;2.70;;;;;;;;;;6202291;23;19999;-83
2022/11/16 09:05:11;;;;;;;10.65;3.35;;;;;;;;;;6175313;23;20385;-76
2022/11/16 09:07:38;;;;;;;7.35;3.17;;;;;;;;;;6199731;23;20050;-78
2022/11/16 09:10:05;;;;;;;5.90;2.60;;;;;;;;;;6202153;23;20004;-85
2022/11/16 09:12:31;;;;;;;13.15;3.50;;;;;;;;;;6174308;23;20083;-85
2022/11/16 09:14:57;;;;;;;7.70;3.40;;;;;;;;;;6200181;23;20005;-81
2022/11/16 09:17:23;;;;;;;11.57;3.65;;;;;;;;;;6199208;23;20087;-83
2022/11/16 09:19:49;;;;;;;8.88;2.95;;;;;;;;;;6200878;23;20238;-79
2022/11/16 09:22:16;;;;;;;11.23;3.40;;;;;;;;;;6199340;23;19996;-77
2022/11/16 09:24:42;;;;;;;10.32;3.67;;;;;;;;;;6199165;23;20004;-79
2022/11/16 09:27:08;;;;;;;9.25;2.88;;;;;;;;;;6197468;23;20576;-83
2022/11/16 09:29:34;;;;;;;7.47;3.35;;;;;;;;;;6199389;23;20001;-75
2022/11/16 09:32:01;;;;;;;7.32;3.25;;;;;;;;;;6199368;23;20005;-85
2022/11/16 09:34:27;;;;;;;8.30;3.15;;;;;;;;;;6198897;23;20445;-85
2022/11/16 09:36:53;;;;;;;12.93;3.83;;;;;;;;;;6198893;23;20095;-83
2022/11/16 09:39:20;;;;;;;9.52;3.58;;;;;;;;;;6197554;23;20038;-81
2022/11/16 09:41:53;;;;;;;6.85;3.47;;;;;;;;;;6199968;23;20376;-84
2022/11/16 09:44:34;;;;;;;9.95;3.33;;;;;;;;;;6198486;23;20005;-85
2022/11/16 09:47:01;;;;;;;9.15;3.50;;;;;;;;;;6195781;23;20009;-85
2022/11/16 09:49:34;;;;;;;7.68;2.72;;;;;;;;;;6199174;23;20079;-78
2022/11/16 09:52:02;;;;;;;10.85;4.22;;;;;;;;;;6198642;23;20009;-78
2022/11/16 09:54:34;;;;;;;6.65;3.63;;;;;;;;;;6198168;23;20452;-80
2022/11/16 09:57:03;;;;;;;9.15;3.80;;;;;;;;;;6197146;23;20484;-86
2022/11/16 09:59:36;;;;;;;7.18;3.83;;;;;;;;;;6198894;23;20404;-85
2022/11/16 10:02:02;;;;;;;13.50;4.22;;;;;;;;;;6198461;23;19996;-84
2022/11/16 10:04:46;;;;;;;9.43;3.60;;;;;;;;;;6199004;23;20054;-76
2022/11/16 10:07:16;;;;;;;10.88;4.35;;;;;;;;;;6197646;23;20001;-78
2022/11/16 10:09:45;;;;;;;9.55;3.60;;;;;;;;;;6198819;23;20065;-84
2022/11/16 10:12:23;;;;;;;10.27;3.45;;;;;;;;;;6198605;23;20074;-86
2022/11/16 10:15:01;;;;;;;9.57;4.10;;;;;;;;;;6198754;23;20079;-85
2022/11/16 10:17:46;;;;;;;11.55;4.63;;;;;;;;;;6197657;23;20004;-80
2022/11/16 10:20:24;;;;;;;6.75;3.97;;;;;;;;;;6199192;23;20021;-77
2022/11/16 10:23:09;;;;;;;7.97;4.07;;;;;;;;;;6198908;23;20004;-80
2022/11/16 10:25:45;;;;;;;12.65;4.15;;;;;;;;;;6197384;23;20004;-84
2022/11/16 10:28:30;;;;;;;7.85;4.07;;;;;;;;;;6198747;23;20011;-83
2022/11/16 10:31:02;;;;;;;11.55;3.60;;;;;;;;;;6198583;23;20008;-84
2022/11/16 10:33:34;;;;;;;8.48;3.58;;;;;;;;;;6197998;23;20005;-85
2022/11/16 10:36:01;;;;;;;11.52;4.07;;;;;;;;;;6171440;23;20095;-80
2022/11/16 10:38:29;;;;;;;10.50;4.97;;;;;;;;;;6198764;23;20005;-83
2022/11/16 10:41:14;;;;;;;12.00;4.53;;;;;;;;;;6195839;23;20067;-83
2022/11/16 10:43:41;;;;;;;9.75;4.35;;;;;;;;;;6199481;23;20001;-89
2022/11/16 10:46:17;;;;;;;10.20;3.72;;;;;;;;;;6200648;23;20009;-86
2022/11/16 10:48:52;;;;;;;11.02;3.60;;;;;;;;;;6174735;23;20013;-86
2022/11/16 10:51:18;;;;;;;13.77;4.13;;;;;;;;;;6199277;23;20255;-85
2022/11/16 10:53:44;;;;;;;7.43;3.65;;;;;;;;;;6201548;23;20461;-88
2022/11/16 10:56:20;;;;;;;11.93;4.15;;;;;;;;;;6201997;23;20007;-88
2022/11/16 10:58:57;;;;;;;8.55;3.45;;;;;;;;;;6201648;23;20005;-87
2022/11/16 11:01:32;;;;;;;8.45;3.97;;;;;;;;;;6201046;23;20032;-83
2022/11/16 11:04:12;;;;;;;9.63;3.58;;;;;;;;;;6200923;23;20000;-83
2022/11/16 11:06:41;;;;;;;7.85;3.92;;;;;;;;;;6200650;23;20004;-81
2022/11/16 11:09:15;;;;;;;7.00;3.67;;;;;;;;;;6199831;23;20513;-86
2022/11/16 11:14:26;;;;;;;6.57;4.25;;;;;;;;;;6200936;23;20011;-86
2022/11/16 11:16:52;;;;;;;9.40;4.10;;;;;;;;;;6201152;23;20005;-83
2022/11/16 11:19:23;;;;;;;10.02;3.97;;;;;;;;;;6201967;23;20016;-81
2022/11/16 11:21:49;;;;;;;13.63;3.83;;;;;;;;;;6201238;23;20015;-84
2022/11/16 11:24:17;;;;;;;10.43;3.90;;;;;;;;;;6201545;23;20068;-74
2022/11/16 11:26:46;;;;;;;9.30;4.38;;;;;;;;;;6202391;23;19996;-78
2022/11/16 11:29:15;;;;;;;9.93;4.03;;;;;;;;;;6202922;23;20055;-79
2022/11/16 11:31:47;;;;;;;11.20;4.90;;;;;;;;;;6200887;23;20007;-77
2022/11/16 11:34:18;;;;;;;10.32;4.30;;;;;;;;;;6203056;23;20456;-75
2022/11/16 11:36:50;;;;;;;10.00;5.57;;;;;;;;;;6201737;23;20016;-75
2022/11/16 11:39:16;;;;;;;8.85;4.15;;;;;;;;;;6203013;23;20019;-73
2022/11/16 11:41:43;;;;;;;10.32;4.32;;;;;;;;;;6200439;23;20004;-76
2022/11/16 11:44:12;;;;;;;7.47;3.60;;;;;;;;;;6173506;23;20028;-76
2022/11/16 11:46:41;;;;;;;9.13;3.85;;;;;;;;;;6198278;23;20032;-77
2022/11/16 11:49:16;;;;;;;8.52;3.78;;;;;;;;;;6197835;23;20015;-79
2022/11/16 11:51:46;;;;;;;11.43;3.85;;;;;;;;;;6199976;23;20007;-76
2022/11/16 11:54:27;;;;;;;13.88;4.18;;;;;;;;;;6199542;23;20012;-75
2022/11/16 11:56:54;;;;;;;12.10;3.72;;;;;;;;;;6200079;23;20341;-80
2022/11/16 11:59:22;;;;;;;7.93;3.55;;;;;;;;;;6173416;23;20079;-79
2022/11/16 12:02:05;;;;;;;14.32;4.22;;;;;;;;;;6171665;23;20788;-79
2022/11/16 12:04:50;;;;;;;7.10;3.63;;;;;;;;;;6200048;23;20325;-82
2022/11/16 12:07:25;;;;;;;9.25;3.97;;;;;;;;;;6199737;23;20001;-81
2022/11/16 12:10:15;;;;;;;11.48;3.70;;;;;;;;;;6200082;23;20004;-81
2022/11/16 12:12:53;;;;;;;9.48;4.40;;;;;;;;;;6144017;23;20012;-80
2022/11/16 12:15:38;;;;;;;13.02;4.35;;;;;;;;;;6199251;23;20058;-83
2022/11/16 12:18:04;;;;;;;7.75;4.15;;;;;;;;;;6198291;23;20477;-80
2022/11/16 12:20:33;;;;;;;7.78;3.47;;;;;;;;;;6197750;23;20642;-83
2022/11/16 12:23:11;;;;;;;10.32;4.00;;;;;;;;;;6171043;23;20067;-86
2022/11/16 12:25:55;;;;;;;8.13;3.25;;;;;;;;;;6199322;23;20449;-82
2022/11/16 12:28:47;;;;;;;11.45;3.90;;;;;;;;;;6200553;23;20171;-87
2022/11/16 12:31:32;;;;;;;8.32;3.38;;;;;;;;;;6173810;23;20096;-87
2022/11/16 12:34:01;;;;;;;14.82;4.05;;;;;;;;;;6200169;23;20004;-82
2022/11/16 12:36:36;;;;;;;13.40;3.85;;;;;;;;;;6197812;23;20005;-83
2022/11/16 12:39:17;;;;;;;7.95;3.28;;;;;;;;;;6200259;23;20013;-84
2022/11/16 12:41:49;;;;;;;9.85;3.72;;;;;;;;;;6199612;23;20428;-83
2022/11/16 12:44:15;;;;;;;;;;;;;;;;;;6197921;23;20015;-84
2022/11/16 12:46:47;;;;;;;7.82;3.85;;;;;;;;;;6197075;23;19903;-79
2022/11/16 12:49:23;;;;;;;10.13;3.97;;;;;;;;;;6198545;23;20013;-85
2022/11/16 12:51:58;;;;;;;10.02;3.40;;;;;;;;;;6172800;23;20074;-87
2022/11/16 12:54:24;;;;;;;9.27;3.75;;;;;;;;;;6198767;23;20034;-87
2022/11/16 12:56:56;;;;;;;9.95;3.97;;;;;;;;;;6198397;23;20616;-86
2022/11/16 12:59:25;;;;;;;8.50;3.75;;;;;;;;;;6199911;23;20051;-87
2022/11/16 13:01:51;;;;;;;9.63;3.88;;;;;;;;;;6173072;23;20008;-85
2022/11/16 13:04:25;;;;;;;6.18;3.80;;;;;;;;;;6198185;23;20013;-80
2022/11/16 13:06:56;;;;;;;12.60;3.83;;;;;;;;;;6198396;23;20469;-86
2022/11/16 13:09:25;;;;;;;7.95;4.35;;;;;;;;;;6199623;23;20015;-87
2022/11/16 13:11:58;;;;;;;12.32;4.28;;;;;;;;;;6199864;23;20004;-84
2022/11/16 13:14:28;;;;;;;7.72;4.53;;;;;;;;;;6199719;23;20445;-84
2022/11/16 13:16:55;;;;;;;5.90;4.22;;;;;;;;;;6200403;23;20032;-83
2022/11/16 13:19:21;;;;;;;7.95;4.03;;;;;;;;;;6197456;23;20013;-86
2022/11/16 13:21:55;;;;;;;8.50;3.97;;;;;;;;;;6172648;23;20012;-84
2022/11/16 13:24:21;;;;;;;6.75;3.70;;;;;;;;;;6199629;23;20005;-81
2022/11/16 13:27:08;;;;;;;6.68;3.15;;;;;;;;;;6199784;23;20107;-85
2022/11/16 13:29:58;;;;;;;10.98;3.55;;;;;;;;;;6199469;23;20016;-85
2022/11/16 13:32:27;;;;;;;10.10;4.10;;;;;;;;;;6182155;23;20062;-78
2022/11/16 13:34:53;;;;;;;8.35;3.30;;;;;;;;;;6199627;23;19993;-81
2022/11/16 13:37:38;;;;;;;8.38;3.55;;;;;;;;;;6199763;23;20040;-81
2022/11/16 13:40:07;;;;;;;10.45;3.97;;;;;;;;;;6196651;23;20024;-82
2022/11/16 13:42:44;;;;;;;8.98;3.58;;;;;;;;;;6199614;23;20008;-85
2022/11/16 13:45:23;;;;;;;9.07;3.53;;;;;;;;;;6196910;23;20004;-86
2022/11/16 13:47:50;;;;;;;9.23;4.25;;;;;;;;;;6200285;23;20094;-81
2022/11/16 13:50:24;;;;;;;7.97;3.78;;;;;;;;;;6197584;23;20301;-84
2022/11/16 13:52:51;;;;;;;13.20;4.00;;;;;;;;;;6199846;23;20120;-85
2022/11/16 13:55:31;;;;;;;7.78;3.72;;;;;;;;;;6198773;23;20059;-83
2022/11/16 13:57:59;;;;;;;7.95;3.67;;;;;;;;;;6172161;23;20004;-84
2022/11/16 14:00:33;;;;;;;10.70;3.85;;;;;;;;;;6199102;23;20009;-78
2022/11/16 14:03:11;;;;;;;9.15;4.47;;;;;;;;;;6197386;23;20066;-85
2022/11/16 14:05:42;;;;;;;11.07;4.00;;;;;;;;;;6198323;23;20004;-83
2022/11/16 14:08:20;;;;;;;8.10;4.22;;;;;;;;;;6172149;23;20404;-84
2022/11/16 14:10:49;;;;;;;10.25;3.50;;;;;;;;;;6198968;23;20004;-82
2022/11/16 14:13:47;;;;;;;12.10;4.07;;;;;;;;;;6196015;23;20004;-85
2022/11/16 14:16:20;;;;;;;11.13;4.22;;;;;;;;;;6198595;23;20004;-86
2022/11/16 14:19:03;;;;;;;9.43;4.03;;;;;;;;;;6198164;23;20057;-85
2022/11/16 14:21:41;;;;;;;9.25;3.45;;;;;;;;;;6170847;23;20066;-84
2022/11/16 14:24:19;;;;;;;10.18;3.85;;;;;;;;;;6198928;23;20335;-81
2022/11/16 14:26:46;;;;;;;9.27;3.47;;;;;;;;;;6171395;23;20036;-77
2022/11/16 14:29:27;;;;;;;10.10;4.03;;;;;;;;;;6198434;23;20524;-85
2022/11/16 14:31:57;;;;;;;12.18;5.00;;;;;;;;;;6197990;23;20526;-82
2022/11/16 14:34:32;;;;;;;12.45;4.07;;;;;;;;;;6197122;23;20083;-83
2022/11/16 14:36:58;;;;;;;8.23;3.35;;;;;;;;;;6198370;23;20020;-83
2022/11/16 14:39:29;;;;;;;9.30;3.72;;;;;;;;;;6198711;23;20016;-84
2022/11/16 14:42:04;;;;;;;8.93;4.03;;;;;;;;;;6198673;23;20099;-84
2022/11/16 14:44:32;;;;;;;7.40;3.63;;;;;;;;;;6199091;23;20016;-79
2022/11/16 14:46:59;;;;;;;9.57;4.25;;;;;;;;;;6194384;23;20024;-75
2022/11/16 14:49:26;;;;;;;13.18;4.43;;;;;;;;;;6198537;23;20082;-83
2022/11/16 14:51:58;;;;;;;6.95;3.78;;;;;;;;;;6200104;23;20012;-82
2022/11/16 14:54:38;;;;;;;8.02;3.85;;;;;;;;;;6200094;23;20017;-78
2022/11/16 14:57:05;;;;;;;8.27;4.00;;;;;;;;;;6199118;23;20028;-83
2022/11/16 14:59:34;;;;;;;14.40;4.50;;;;;;;;;;6200419;23;20016;-87
2022/11/16 15:02:21;;;;;;;7.13;3.90;;;;;;;;;;6200935;23;20005;-80
2022/11/16 15:04:50;;;;;;;10.30;3.97;;;;;;;;;;6200210;23;20005;-84
2022/11/16 15:07:17;;;;;;;7.40;4.00;;;;;;;;;;6200390;23;20000;-80
2022/11/16 15:10:01;;;;;;;12.20;4.53;;;;;;;;;;6198260;23;20039;-80
2022/11/16 15:12:43;;;;;;;12.02;4.00;;;;;;;;;;6200773;23;20006;-81
2022/11/16 15:15:14;;;;;;;7.90;3.85;;;;;;;;;;6199979;23;20005;-79
2022/11/16 15:18:00;;;;;;;7.00;3.85;;;;;;;;;;6198213;23;20334;-85
2022/11/16 15:20:28;;;;;;;12.27;4.60;;;;;;;;;;6178286;23;20016;-81
2022/11/16 15:22:58;;;;;;;7.65;3.90;;;;;;;;;;6198107;23;20005;-78
2022/11/16 15:25:46;;;;;;;10.43;4.22;;;;;;;;;;6194933;23;20013;-76
2022/11/16 15:28:21;;;;;;;7.97;3.58;;;;;;;;;;6174818;23;20092;-81
2022/11/16 15:30:54;;;;;;;9.50;4.32;;;;;;;;;;6199308;23;20008;-81
2022/11/16 15:33:35;;;;;;;11.13;4.32;;;;;;;;;;6199593;23;20088;-87
2022/11/16 15:36:01;;;;;;;11.43;4.27;;;;;;;;;;6174828;23;20015;-88
2022/11/16 15:38:29;;;;;;;12.63;3.70;;;;;;;;;;6199679;23;20017;-78